Terminal Aerodrome Forecast
Issued by NWS Paducah, KY

Home | Current Version | Previous Version | Text Only | Print | Product List | Glossary On
Versions: 1 2 3 4 5 6 7 8 9 10 11 12 13 14
000
FTUS43 KPAH 170405 AAA
TAFEVV
TAF AMD
KEVV 170405Z 1704/1724 31006KT P6SM OVC035
      TEMPO 1704/1706 6SM -SN BR OVC015
     FM171600 29004KT P6SM SCT025
     FM172200 26005KT P6SM FEW025=

USA.gov is the U.S. government's official web portal to all federal, state and local government web resources and services.